sim
Sign-in with your pilot id or email,
or register
Callsign
Passwort

Schedule Details

Flight Number: OEO3507
Departure: Warsaw Chopin Airport (EPWA) at 06:35
Arrival: Munich Airport (EDDM) at 08:15

Weather Information
Getting current METAR information for EPWA 262130Z 11004KT 060V120 6000 RA BKN004 BKN030 17/17 Q0997 NOSIG
Getting current METAR information for EDDM 262150Z 23016KT 9999 OVC022 07/03 Q1002 NOSIG

Schedule Frequency

Route Map